Cross Lake, New York
Current Conditions -  °F | °C
As of 6:54 PM on Sunday 23 Nov 2014 (Local Time) from KSYR Reporting Station
Scattered Clouds Scattered Clouds  
Wind Chill: 40°   Ceiling: Unl
Heat Index: 45°   Visibility: 10mi
Dew Point: 37°   Wind: 9mph
Humidity: 74%   Direction: 90°E
Pressure: 29.93"   Gusts: NA
Location:  43.0684°N, 76.4638°W
Report Text: KSYR 232354Z 09008KT 10SM FEW065 SCT120 07/03 A2993 RMK AO2 SLP134 60000 T00720028 10122 20072 58023 $
Loading
Personal Weather Stations






























Interactive Weather Map New forecast layout! Learn more

10-Day Weather Forecast

Advertisements
Track Severe Weather on mobile